sensor_id;sensor_type;location;lat;lon;timestamp;P1;durP1;ratioP1;P2;durP2;ratioP2
20855;SDS011;63058;49.424;8.420;2023-03-31T00:01:47;3.17;;;1.10;;
20855;SDS011;63058;49.424;8.420;2023-03-31T00:04:12;3.33;;;0.95;;
20855;SDS011;63058;49.424;8.420;2023-03-31T00:06:39;4.07;;;0.80;;
20855;SDS011;63058;49.424;8.420;2023-03-31T00:09:10;3.90;;;1.10;;
20855;SDS011;63058;49.424;8.420;2023-03-31T00:11:38;3.65;;;0.90;;
20855;SDS011;63058;49.424;8.420;2023-03-31T00:14:04;3.55;;;1.27;;
20855;SDS011;63058;49.424;8.420;2023-03-31T00:16:34;3.50;;;1.10;;
20855;SDS011;63058;49.424;8.420;2023-03-31T00:19:01;4.82;;;1.10;;
20855;SDS011;63058;49.424;8.420;2023-03-31T00:21:27;5.60;;;1.20;;
20855;SDS011;63058;49.424;8.420;2023-03-31T00:26:21;2.65;;;1.02;;
20855;SDS011;63058;49.424;8.420;2023-03-31T00:28:47;3.95;;;1.10;;
20855;SDS011;63058;49.424;8.420;2023-03-31T00:31:13;6.03;;;1.25;;
20855;SDS011;63058;49.424;8.420;2023-03-31T00:33:39;5.18;;;1.17;;
20855;SDS011;63058;49.424;8.420;2023-03-31T00:36:05;3.75;;;0.93;;
20855;SDS011;63058;49.424;8.420;2023-03-31T00:38:31;4.50;;;1.30;;
20855;SDS011;63058;49.424;8.420;2023-03-31T00:40:57;5.43;;;1.17;;
20855;SDS011;63058;49.424;8.420;2023-03-31T00:43:25;5.40;;;1.50;;
20855;SDS011;63058;49.424;8.420;2023-03-31T00:45:53;6.90;;;1.30;;
20855;SDS011;63058;49.424;8.420;2023-03-31T00:48:20;4.82;;;1.25;;
20855;SDS011;63058;49.424;8.420;2023-03-31T00:50:49;3.92;;;1.30;;
20855;SDS011;63058;49.424;8.420;2023-03-31T00:53:21;4.00;;;1.40;;
20855;SDS011;63058;49.424;8.420;2023-03-31T00:55:53;4.95;;;1.40;;
20855;SDS011;63058;49.424;8.420;2023-03-31T00:58:23;5.65;;;1.30;;
20855;SDS011;63058;49.424;8.420;2023-03-31T01:00:52;3.90;;;0.85;;
20855;SDS011;63058;49.424;8.420;2023-03-31T01:03:22;4.78;;;1.33;;
20855;SDS011;63058;49.424;8.420;2023-03-31T01:05:53;4.20;;;1.20;;
20855;SDS011;63058;49.424;8.420;2023-03-31T01:08:28;3.10;;;0.90;;
20855;SDS011;63058;49.424;8.420;2023-03-31T01:10:56;5.53;;;1.08;;
20855;SDS011;63058;49.424;8.420;2023-03-31T01:13:25;3.33;;;0.90;;
20855;SDS011;63058;49.424;8.420;2023-03-31T01:15:51;3.33;;;1.02;;
20855;SDS011;63058;49.424;8.420;2023-03-31T01:18:18;3.53;;;1.00;;
20855;SDS011;63058;49.424;8.420;2023-03-31T01:27:31;7.88;;;1.27;;
20855;SDS011;63058;49.424;8.420;2023-03-31T01:39:02;4.40;;;1.00;;
20855;SDS011;63058;49.424;8.420;2023-03-31T01:42:07;2.63;;;0.80;;
20855;SDS011;63058;49.424;8.420;2023-03-31T01:47:55;5.72;;;1.23;;
20855;SDS011;63058;49.424;8.420;2023-03-31T01:50:30;5.53;;;1.52;;
20855;SDS011;63058;49.424;8.420;2023-03-31T01:53:16;3.08;;;1.00;;
20855;SDS011;63058;49.424;8.420;2023-03-31T01:59:21;3.45;;;0.88;;
20855;SDS011;63058;49.424;8.420;2023-03-31T02:01:47;3.63;;;0.90;;
20855;SDS011;63058;49.424;8.420;2023-03-31T02:04:21;5.18;;;1.30;;
20855;SDS011;63058;49.424;8.420;2023-03-31T02:06:54;6.90;;;1.38;;
20855;SDS011;63058;49.424;8.420;2023-03-31T02:09:29;2.95;;;1.33;;
20855;SDS011;63058;49.424;8.420;2023-03-31T02:11:58;5.00;;;1.38;;
20855;SDS011;63058;49.424;8.420;2023-03-31T02:14:27;4.20;;;1.13;;
20855;SDS011;63058;49.424;8.420;2023-03-31T02:16:56;4.53;;;1.02;;
20855;SDS011;63058;49.424;8.420;2023-03-31T02:19:23;4.95;;;1.42;;
20855;SDS011;63058;49.424;8.420;2023-03-31T02:21:54;4.28;;;1.10;;
20855;SDS011;63058;49.424;8.420;2023-03-31T02:24:20;4.85;;;1.40;;
20855;SDS011;63058;49.424;8.420;2023-03-31T02:27:10;3.42;;;1.23;;
20855;SDS011;63058;49.424;8.420;2023-03-31T02:29:46;3.88;;;1.30;;
20855;SDS011;63058;49.424;8.420;2023-03-31T02:34:44;5.78;;;0.95;;
20855;SDS011;63058;49.424;8.420;2023-03-31T02:37:10;5.40;;;1.10;;
20855;SDS011;63058;49.424;8.420;2023-03-31T02:39:37;7.18;;;1.10;;
20855;SDS011;63058;49.424;8.420;2023-03-31T02:42:05;7.05;;;1.05;;
20855;SDS011;63058;49.424;8.420;2023-03-31T02:44:32;5.07;;;1.02;;
20855;SDS011;63058;49.424;8.420;2023-03-31T02:46:59;4.35;;;1.20;;
20855;SDS011;63058;49.424;8.420;2023-03-31T02:49:26;4.28;;;1.00;;
20855;SDS011;63058;49.424;8.420;2023-03-31T02:54:42;7.03;;;1.10;;
20855;SDS011;63058;49.424;8.420;2023-03-31T02:57:28;5.13;;;1.20;;
20855;SDS011;63058;49.424;8.420;2023-03-31T03:00:21;5.20;;;1.00;;
20855;SDS011;63058;49.424;8.420;2023-03-31T03:03:55;3.80;;;0.90;;
20855;SDS011;63058;49.424;8.420;2023-03-31T03:09:24;5.47;;;1.10;;
20855;SDS011;63058;49.424;8.420;2023-03-31T03:15:04;3.90;;;0.88;;
20855;SDS011;63058;49.424;8.420;2023-03-31T03:17:54;3.55;;;0.98;;
20855;SDS011;63058;49.424;8.420;2023-03-31T03:20:21;2.78;;;0.90;;
20855;SDS011;63058;49.424;8.420;2023-03-31T03:22:47;3.10;;;0.98;;
20855;SDS011;63058;49.424;8.420;2023-03-31T03:25:14;3.08;;;0.88;;
20855;SDS011;63058;49.424;8.420;2023-03-31T03:27:41;3.85;;;1.10;;
20855;SDS011;63058;49.424;8.420;2023-03-31T03:30:07;2.13;;;0.70;;
20855;SDS011;63058;49.424;8.420;2023-03-31T03:32:35;1.52;;;0.82;;
20855;SDS011;63058;49.424;8.420;2023-03-31T03:35:01;4.47;;;1.00;;
20855;SDS011;63058;49.424;8.420;2023-03-31T03:37:28;3.63;;;0.75;;
20855;SDS011;63058;49.424;8.420;2023-03-31T03:39:55;2.58;;;0.90;;
20855;SDS011;63058;49.424;8.420;2023-03-31T03:42:20;3.00;;;1.15;;
20855;SDS011;63058;49.424;8.420;2023-03-31T03:44:46;2.22;;;0.90;;
20855;SDS011;63058;49.424;8.420;2023-03-31T03:47:12;1.85;;;0.68;;
20855;SDS011;63058;49.424;8.420;2023-03-31T03:49:38;2.75;;;0.70;;
20855;SDS011;63058;49.424;8.420;2023-03-31T03:52:03;4.22;;;1.33;;
20855;SDS011;63058;49.424;8.420;2023-03-31T03:54:29;3.47;;;0.90;;
20855;SDS011;63058;49.424;8.420;2023-03-31T03:56:55;3.88;;;0.80;;
20855;SDS011;63058;49.424;8.420;2023-03-31T03:59:20;2.83;;;0.85;;
20855;SDS011;63058;49.424;8.420;2023-03-31T04:01:46;3.83;;;0.80;;
20855;SDS011;63058;49.424;8.420;2023-03-31T04:04:12;3.55;;;0.70;;
20855;SDS011;63058;49.424;8.420;2023-03-31T04:06:37;2.15;;;0.60;;
20855;SDS011;63058;49.424;8.420;2023-03-31T04:09:03;2.88;;;0.70;;
20855;SDS011;63058;49.424;8.420;2023-03-31T04:11:29;2.35;;;0.80;;
20855;SDS011;63058;49.424;8.420;2023-03-31T04:16:23;2.72;;;0.95;;
20855;SDS011;63058;49.424;8.420;2023-03-31T04:18:50;3.95;;;1.02;;
20855;SDS011;63058;49.424;8.420;2023-03-31T04:21:17;2.13;;;0.60;;
20855;SDS011;63058;49.424;8.420;2023-03-31T04:23:52;4.38;;;0.70;;
20855;SDS011;63058;49.424;8.420;2023-03-31T04:26:31;1.38;;;0.77;;
20855;SDS011;63058;49.424;8.420;2023-03-31T04:29:07;1.92;;;0.70;;
20855;SDS011;63058;49.424;8.420;2023-03-31T04:31:34;1.63;;;0.70;;
20855;SDS011;63058;49.424;8.420;2023-03-31T04:34:02;2.67;;;0.70;;
20855;SDS011;63058;49.424;8.420;2023-03-31T04:36:30;3.25;;;0.90;;
20855;SDS011;63058;49.424;8.420;2023-03-31T04:38:57;2.85;;;0.98;;
20855;SDS011;63058;49.424;8.420;2023-03-31T04:41:24;3.13;;;1.00;;
20855;SDS011;63058;49.424;8.420;2023-03-31T04:43:51;3.55;;;1.10;;
20855;SDS011;63058;49.424;8.420;2023-03-31T04:46:17;3.13;;;0.93;;
20855;SDS011;63058;49.424;8.420;2023-03-31T04:48:43;4.05;;;1.08;;
20855;SDS011;63058;49.424;8.420;2023-03-31T04:51:09;3.42;;;1.00;;
20855;SDS011;63058;49.424;8.420;2023-03-31T04:53:34;3.38;;;1.08;;
20855;SDS011;63058;49.424;8.420;2023-03-31T04:56:00;3.08;;;1.08;;
20855;SDS011;63058;49.424;8.420;2023-03-31T04:58:26;1.95;;;0.93;;
20855;SDS011;63058;49.424;8.420;2023-03-31T05:00:52;2.97;;;1.08;;
20855;SDS011;63058;49.424;8.420;2023-03-31T05:03:18;3.28;;;1.25;;
20855;SDS011;63058;49.424;8.420;2023-03-31T05:05:44;2.85;;;1.27;;
20855;SDS011;63058;49.424;8.420;2023-03-31T05:08:09;2.85;;;1.17;;
20855;SDS011;63058;49.424;8.420;2023-03-31T05:10:35;5.75;;;1.35;;
20855;SDS011;63058;49.424;8.420;2023-03-31T05:13:01;4.68;;;1.23;;
20855;SDS011;63058;49.424;8.420;2023-03-31T05:15:27;6.40;;;1.50;;
20855;SDS011;63058;49.424;8.420;2023-03-31T05:17:52;3.97;;;1.20;;
20855;SDS011;63058;49.424;8.420;2023-03-31T05:20:18;3.65;;;1.30;;
20855;SDS011;63058;49.424;8.420;2023-03-31T05:22:45;3.90;;;1.20;;
20855;SDS011;63058;49.424;8.420;2023-03-31T05:25:11;5.75;;;1.20;;
20855;SDS011;63058;49.424;8.420;2023-03-31T05:27:43;4.05;;;1.35;;
20855;SDS011;63058;49.424;8.420;2023-03-31T05:30:11;4.38;;;1.13;;
20855;SDS011;63058;49.424;8.420;2023-03-31T05:32:37;3.17;;;1.50;;
20855;SDS011;63058;49.424;8.420;2023-03-31T05:35:03;1.80;;;1.00;;
20855;SDS011;63058;49.424;8.420;2023-03-31T05:37:29;3.58;;;1.50;;
20855;SDS011;63058;49.424;8.420;2023-03-31T05:39:55;3.72;;;1.67;;
20855;SDS011;63058;49.424;8.420;2023-03-31T05:42:21;3.15;;;1.42;;
20855;SDS011;63058;49.424;8.420;2023-03-31T05:44:47;3.92;;;1.63;;
20855;SDS011;63058;49.424;8.420;2023-03-31T05:47:13;3.47;;;1.40;;
20855;SDS011;63058;49.424;8.420;2023-03-31T05:49:39;3.15;;;1.40;;
20855;SDS011;63058;49.424;8.420;2023-03-31T05:52:05;2.55;;;1.42;;
20855;SDS011;63058;49.424;8.420;2023-03-31T05:54:31;7.00;;;1.90;;
20855;SDS011;63058;49.424;8.420;2023-03-31T05:56:57;4.97;;;1.60;;
20855;SDS011;63058;49.424;8.420;2023-03-31T05:59:22;4.80;;;1.73;;
20855;SDS011;63058;49.424;8.420;2023-03-31T06:01:48;3.65;;;1.70;;
20855;SDS011;63058;49.424;8.420;2023-03-31T06:04:14;4.80;;;1.70;;
20855;SDS011;63058;49.424;8.420;2023-03-31T06:06:40;2.58;;;1.48;;
20855;SDS011;63058;49.424;8.420;2023-03-31T06:09:08;4.10;;;1.38;;
20855;SDS011;63058;49.424;8.420;2023-03-31T06:11:36;4.28;;;1.70;;
20855;SDS011;63058;49.424;8.420;2023-03-31T06:14:02;4.05;;;1.65;;
20855;SDS011;63058;49.424;8.420;2023-03-31T06:16:28;3.75;;;1.58;;
20855;SDS011;63058;49.424;8.420;2023-03-31T06:18:54;3.85;;;1.83;;
20855;SDS011;63058;49.424;8.420;2023-03-31T06:21:20;3.67;;;1.88;;
20855;SDS011;63058;49.424;8.420;2023-03-31T06:23:46;4.50;;;1.73;;
20855;SDS011;63058;49.424;8.420;2023-03-31T06:26:15;4.18;;;1.90;;
20855;SDS011;63058;49.424;8.420;2023-03-31T06:28:42;5.53;;;2.20;;
20855;SDS011;63058;49.424;8.420;2023-03-31T06:31:10;5.15;;;2.30;;
20855;SDS011;63058;49.424;8.420;2023-03-31T06:33:38;4.88;;;2.20;;
20855;SDS011;63058;49.424;8.420;2023-03-31T06:36:05;3.45;;;2.28;;
20855;SDS011;63058;49.424;8.420;2023-03-31T06:38:32;4.07;;;2.20;;
20855;SDS011;63058;49.424;8.420;2023-03-31T06:40:58;3.95;;;2.20;;
20855;SDS011;63058;49.424;8.420;2023-03-31T06:43:24;4.88;;;2.70;;
20855;SDS011;63058;49.424;8.420;2023-03-31T06:45:54;4.82;;;2.10;;
20855;SDS011;63058;49.424;8.420;2023-03-31T06:48:21;3.83;;;2.00;;
20855;SDS011;63058;49.424;8.420;2023-03-31T06:50:48;5.53;;;2.40;;
20855;SDS011;63058;49.424;8.420;2023-03-31T06:53:14;3.53;;;2.15;;
20855;SDS011;63058;49.424;8.420;2023-03-31T06:55:39;5.72;;;2.33;;
20855;SDS011;63058;49.424;8.420;2023-03-31T06:58:05;8.30;;;2.58;;
20855;SDS011;63058;49.424;8.420;2023-03-31T07:00:31;8.45;;;2.80;;
20855;SDS011;63058;49.424;8.420;2023-03-31T07:02:57;5.45;;;2.38;;
20855;SDS011;63058;49.424;8.420;2023-03-31T07:05:24;7.63;;;2.83;;
20855;SDS011;63058;49.424;8.420;2023-03-31T07:07:53;6.20;;;2.72;;
20855;SDS011;63058;49.424;8.420;2023-03-31T07:10:19;5.57;;;2.70;;
20855;SDS011;63058;49.424;8.420;2023-03-31T07:12:45;6.53;;;2.60;;
20855;SDS011;63058;49.424;8.420;2023-03-31T07:15:11;7.38;;;3.47;;
20855;SDS011;63058;49.424;8.420;2023-03-31T07:17:38;6.88;;;3.28;;
20855;SDS011;63058;49.424;8.420;2023-03-31T07:20:16;6.75;;;3.33;;
20855;SDS011;63058;49.424;8.420;2023-03-31T07:22:45;7.05;;;3.65;;
20855;SDS011;63058;49.424;8.420;2023-03-31T07:25:13;6.07;;;3.45;;
20855;SDS011;63058;49.424;8.420;2023-03-31T07:27:40;8.75;;;3.08;;
20855;SDS011;63058;49.424;8.420;2023-03-31T07:30:07;9.82;;;3.25;;
20855;SDS011;63058;49.424;8.420;2023-03-31T07:32:35;6.60;;;3.13;;
20855;SDS011;63058;49.424;8.420;2023-03-31T07:35:05;6.47;;;3.40;;
20855;SDS011;63058;49.424;8.420;2023-03-31T07:37:35;6.85;;;3.47;;
20855;SDS011;63058;49.424;8.420;2023-03-31T07:40:02;6.38;;;3.45;;
20855;SDS011;63058;49.424;8.420;2023-03-31T07:42:30;8.57;;;3.28;;
20855;SDS011;63058;49.424;8.420;2023-03-31T07:44:56;8.80;;;3.42;;
20855;SDS011;63058;49.424;8.420;2023-03-31T07:47:22;7.80;;;3.65;;
20855;SDS011;63058;49.424;8.420;2023-03-31T07:49:48;4.97;;;3.22;;
20855;SDS011;63058;49.424;8.420;2023-03-31T07:52:14;6.70;;;3.05;;
20855;SDS011;63058;49.424;8.420;2023-03-31T07:54:40;8.68;;;3.80;;
20855;SDS011;63058;49.424;8.420;2023-03-31T07:57:06;6.53;;;2.92;;
20855;SDS011;63058;49.424;8.420;2023-03-31T07:59:33;7.30;;;3.55;;
20855;SDS011;63058;49.424;8.420;2023-03-31T08:01:58;8.18;;;3.15;;
20855;SDS011;63058;49.424;8.420;2023-03-31T08:04:24;9.02;;;3.20;;
20855;SDS011;63058;49.424;8.420;2023-03-31T08:06:51;6.82;;;3.10;;
20855;SDS011;63058;49.424;8.420;2023-03-31T08:09:17;6.65;;;3.05;;
20855;SDS011;63058;49.424;8.420;2023-03-31T08:11:43;7.32;;;3.08;;
20855;SDS011;63058;49.424;8.420;2023-03-31T08:14:09;5.97;;;3.13;;
20855;SDS011;63058;49.424;8.420;2023-03-31T08:16:35;8.52;;;3.30;;
20855;SDS011;63058;49.424;8.420;2023-03-31T08:19:01;6.43;;;2.88;;
20855;SDS011;63058;49.424;8.420;2023-03-31T08:21:27;5.72;;;2.92;;
20855;SDS011;63058;49.424;8.420;2023-03-31T08:23:54;7.18;;;3.17;;
20855;SDS011;63058;49.424;8.420;2023-03-31T08:26:20;5.32;;;3.42;;
20855;SDS011;63058;49.424;8.420;2023-03-31T08:28:48;9.43;;;3.25;;
20855;SDS011;63058;49.424;8.420;2023-03-31T08:31:14;8.60;;;3.42;;
20855;SDS011;63058;49.424;8.420;2023-03-31T08:33:42;5.78;;;2.67;;
20855;SDS011;63058;49.424;8.420;2023-03-31T08:36:09;6.63;;;3.28;;
20855;SDS011;63058;49.424;8.420;2023-03-31T08:38:35;9.45;;;3.40;;
20855;SDS011;63058;49.424;8.420;2023-03-31T08:41:03;5.43;;;2.58;;
20855;SDS011;63058;49.424;8.420;2023-03-31T08:43:36;7.60;;;2.63;;
20855;SDS011;63058;49.424;8.420;2023-03-31T08:46:09;6.85;;;3.22;;
20855;SDS011;63058;49.424;8.420;2023-03-31T08:48:38;8.05;;;3.33;;
20855;SDS011;63058;49.424;8.420;2023-03-31T08:51:12;7.43;;;3.67;;
20855;SDS011;63058;49.424;8.420;2023-03-31T08:54:04;7.95;;;3.40;;
20855;SDS011;63058;49.424;8.420;2023-03-31T08:56:35;6.85;;;2.97;;
20855;SDS011;63058;49.424;8.420;2023-03-31T08:59:05;9.57;;;3.00;;
20855;SDS011;63058;49.424;8.420;2023-03-31T09:01:55;5.93;;;2.67;;
20855;SDS011;63058;49.424;8.420;2023-03-31T09:10:22;5.40;;;2.60;;
20855;SDS011;63058;49.424;8.420;2023-03-31T09:12:56;7.68;;;2.17;;
20855;SDS011;63058;49.424;8.420;2023-03-31T09:15:49;7.72;;;2.42;;
20855;SDS011;63058;49.424;8.420;2023-03-31T09:18:18;4.13;;;1.77;;
20855;SDS011;63058;49.424;8.420;2023-03-31T09:20:56;6.97;;;2.35;;
20855;SDS011;63058;49.424;8.420;2023-03-31T09:26:17;3.17;;;1.60;;
20855;SDS011;63058;49.424;8.420;2023-03-31T09:28:50;4.75;;;1.60;;
20855;SDS011;63058;49.424;8.420;2023-03-31T09:31:18;9.73;;;2.15;;
20855;SDS011;63058;49.424;8.420;2023-03-31T09:33:46;4.78;;;1.63;;
20855;SDS011;63058;49.424;8.420;2023-03-31T09:36:13;5.28;;;2.10;;
20855;SDS011;63058;49.424;8.420;2023-03-31T09:38:41;6.07;;;1.90;;
20855;SDS011;63058;49.424;8.420;2023-03-31T09:41:08;7.07;;;2.13;;
20855;SDS011;63058;49.424;8.420;2023-03-31T09:43:35;11.88;;;2.38;;
20855;SDS011;63058;49.424;8.420;2023-03-31T09:46:03;5.60;;;1.80;;
20855;SDS011;63058;49.424;8.420;2023-03-31T09:48:38;4.90;;;1.17;;
20855;SDS011;63058;49.424;8.420;2023-03-31T09:51:16;3.67;;;1.40;;
20855;SDS011;63058;49.424;8.420;2023-03-31T09:53:49;3.85;;;1.30;;
20855;SDS011;63058;49.424;8.420;2023-03-31T09:59:12;4.15;;;1.48;;
20855;SDS011;63058;49.424;8.420;2023-03-31T10:01:43;3.70;;;1.50;;
20855;SDS011;63058;49.424;8.420;2023-03-31T10:04:16;6.30;;;1.50;;
20855;SDS011;63058;49.424;8.420;2023-03-31T10:06:45;6.65;;;1.80;;
20855;SDS011;63058;49.424;8.420;2023-03-31T10:09:12;4.65;;;1.70;;
20855;SDS011;63058;49.424;8.420;2023-03-31T10:11:38;7.40;;;2.30;;
20855;SDS011;63058;49.424;8.420;2023-03-31T10:14:11;8.27;;;2.47;;
20855;SDS011;63058;49.424;8.420;2023-03-31T10:19:26;9.15;;;2.78;;
20855;SDS011;63058;49.424;8.420;2023-03-31T10:24:43;11.80;;;2.35;;
20855;SDS011;63058;49.424;8.420;2023-03-31T10:27:18;9.73;;;1.73;;
20855;SDS011;63058;49.424;8.420;2023-03-31T10:29:51;8.23;;;1.88;;
20855;SDS011;63058;49.424;8.420;2023-03-31T10:34:49;4.15;;;1.13;;
20855;SDS011;63058;49.424;8.420;2023-03-31T10:37:16;7.25;;;1.70;;
20855;SDS011;63058;49.424;8.420;2023-03-31T10:39:44;5.28;;;1.48;;
20855;SDS011;63058;49.424;8.420;2023-03-31T10:42:18;7.90;;;1.52;;
20855;SDS011;63058;49.424;8.420;2023-03-31T10:44:46;10.60;;;2.05;;
20855;SDS011;63058;49.424;8.420;2023-03-31T10:49:39;6.40;;;1.30;;
20855;SDS011;63058;49.424;8.420;2023-03-31T10:52:14;5.68;;;1.33;;
20855;SDS011;63058;49.424;8.420;2023-03-31T10:54:58;8.48;;;1.40;;
20855;SDS011;63058;49.424;8.420;2023-03-31T10:57:41;7.10;;;1.20;;
20855;SDS011;63058;49.424;8.420;2023-03-31T11:00:29;3.30;;;0.90;;
20855;SDS011;63058;49.424;8.420;2023-03-31T11:08:45;5.68;;;1.00;;
20855;SDS011;63058;49.424;8.420;2023-03-31T11:11:18;2.83;;;0.82;;
20855;SDS011;63058;49.424;8.420;2023-03-31T11:18:59;2.88;;;0.75;;
20855;SDS011;63058;49.424;8.420;2023-03-31T11:21:48;3.60;;;0.90;;
20855;SDS011;63058;49.424;8.420;2023-03-31T11:24:34;2.65;;;0.95;;
20855;SDS011;63058;49.424;8.420;2023-03-31T11:27:21;4.75;;;1.20;;
20855;SDS011;63058;49.424;8.420;2023-03-31T11:35:49;4.20;;;1.10;;
20855;SDS011;63058;49.424;8.420;2023-03-31T11:38:46;4.30;;;1.20;;
20855;SDS011;63058;49.424;8.420;2023-03-31T11:44:04;3.50;;;1.20;;
20855;SDS011;63058;49.424;8.420;2023-03-31T11:46:38;6.50;;;1.85;;
20855;SDS011;63058;49.424;8.420;2023-03-31T11:49:26;9.07;;;1.75;;
20855;SDS011;63058;49.424;8.420;2023-03-31T11:52:07;7.90;;;1.60;;
20855;SDS011;63058;49.424;8.420;2023-03-31T11:55:13;7.47;;;1.50;;
20855;SDS011;63058;49.424;8.420;2023-03-31T11:57:43;11.65;;;2.00;;
20855;SDS011;63058;49.424;8.420;2023-03-31T12:03:39;10.88;;;2.00;;
20855;SDS011;63058;49.424;8.420;2023-03-31T12:06:12;5.80;;;1.35;;
20855;SDS011;63058;49.424;8.420;2023-03-31T12:11:12;5.00;;;1.50;;
20855;SDS011;63058;49.424;8.420;2023-03-31T12:13:52;6.78;;;1.80;;
20855;SDS011;63058;49.424;8.420;2023-03-31T12:16:47;4.07;;;1.10;;
20855;SDS011;63058;49.424;8.420;2023-03-31T12:19:24;8.13;;;1.20;;
20855;SDS011;63058;49.424;8.420;2023-03-31T12:24:34;3.78;;;0.85;;
20855;SDS011;63058;49.424;8.420;2023-03-31T12:29:43;3.75;;;0.70;;
20855;SDS011;63058;49.424;8.420;2023-03-31T12:32:16;5.28;;;0.90;;
20855;SDS011;63058;49.424;8.420;2023-03-31T12:34:47;3.78;;;0.90;;
20855;SDS011;63058;49.424;8.420;2023-03-31T12:37:28;3.92;;;0.93;;
20855;SDS011;63058;49.424;8.420;2023-03-31T12:57:20;4.97;;;0.90;;
20855;SDS011;63058;49.424;8.420;2023-03-31T13:02:48;3.53;;;0.95;;
20855;SDS011;63058;49.424;8.420;2023-03-31T13:08:05;3.17;;;1.10;;
20855;SDS011;63058;49.424;8.420;2023-03-31T13:10:33;3.88;;;1.00;;
20855;SDS011;63058;49.424;8.420;2023-03-31T13:13:18;4.03;;;1.10;;
20855;SDS011;63058;49.424;8.420;2023-03-31T13:15:51;2.90;;;0.80;;
20855;SDS011;63058;49.424;8.420;2023-03-31T13:18:22;5.80;;;0.88;;
20855;SDS011;63058;49.424;8.420;2023-03-31T13:20:58;9.25;;;1.30;;
20855;SDS011;63058;49.424;8.420;2023-03-31T13:23:25;3.92;;;0.80;;
20855;SDS011;63058;49.424;8.420;2023-03-31T13:25:55;2.72;;;0.90;;
20855;SDS011;63058;49.424;8.420;2023-03-31T13:31:04;3.63;;;0.90;;
20855;SDS011;63058;49.424;8.420;2023-03-31T13:38:58;2.63;;;1.23;;
20855;SDS011;63058;49.424;8.420;2023-03-31T14:04:30;3.95;;;1.17;;
20855;SDS011;63058;49.424;8.420;2023-03-31T14:07:19;3.33;;;0.40;;
20855;SDS011;63058;49.424;8.420;2023-03-31T14:09:51;2.45;;;0.43;;
20855;SDS011;63058;49.424;8.420;2023-03-31T14:12:22;2.50;;;0.50;;
20855;SDS011;63058;49.424;8.420;2023-03-31T14:15:01;1.50;;;0.55;;
20855;SDS011;63058;49.424;8.420;2023-03-31T14:17:29;1.55;;;0.63;;
20855;SDS011;63058;49.424;8.420;2023-03-31T14:20:08;2.00;;;0.88;;
20855;SDS011;63058;49.424;8.420;2023-03-31T14:25:43;3.50;;;0.80;;
20855;SDS011;63058;49.424;8.420;2023-03-31T14:36:47;2.70;;;0.93;;
20855;SDS011;63058;49.424;8.420;2023-03-31T14:39:42;2.33;;;0.60;;
20855;SDS011;63058;49.424;8.420;2023-03-31T14:42:11;3.50;;;1.02;;
20855;SDS011;63058;49.424;8.420;2023-03-31T14:44:39;5.88;;;1.10;;
20855;SDS011;63058;49.424;8.420;2023-03-31T14:50:04;3.17;;;0.80;;
20855;SDS011;63058;49.424;8.420;2023-03-31T14:52:33;3.10;;;0.70;;
20855;SDS011;63058;49.424;8.420;2023-03-31T14:54:59;3.35;;;0.80;;
20855;SDS011;63058;49.424;8.420;2023-03-31T14:57:32;4.78;;;0.88;;
20855;SDS011;63058;49.424;8.420;2023-03-31T15:00:03;3.83;;;0.90;;
20855;SDS011;63058;49.424;8.420;2023-03-31T15:02:35;3.00;;;0.80;;
20855;SDS011;63058;49.424;8.420;2023-03-31T15:05:04;3.45;;;1.00;;
20855;SDS011;63058;49.424;8.420;2023-03-31T15:07:33;2.80;;;0.80;;
20855;SDS011;63058;49.424;8.420;2023-03-31T15:10:00;3.25;;;0.85;;
20855;SDS011;63058;49.424;8.420;2023-03-31T15:12:28;4.00;;;1.15;;
20855;SDS011;63058;49.424;8.420;2023-03-31T15:14:56;4.70;;;1.25;;
20855;SDS011;63058;49.424;8.420;2023-03-31T15:17:28;8.00;;;1.45;;
20855;SDS011;63058;49.424;8.420;2023-03-31T15:19:59;5.63;;;1.33;;
20855;SDS011;63058;49.424;8.420;2023-03-31T15:22:28;3.35;;;0.82;;
20855;SDS011;63058;49.424;8.420;2023-03-31T15:24:55;2.60;;;0.90;;
20855;SDS011;63058;49.424;8.420;2023-03-31T15:30:03;4.43;;;1.17;;
20855;SDS011;63058;49.424;8.420;2023-03-31T15:32:33;4.28;;;1.27;;
20855;SDS011;63058;49.424;8.420;2023-03-31T15:35:00;4.40;;;0.90;;
20855;SDS011;63058;49.424;8.420;2023-03-31T15:37:38;7.80;;;1.40;;
20855;SDS011;63058;49.424;8.420;2023-03-31T15:40:24;6.72;;;1.67;;
20855;SDS011;63058;49.424;8.420;2023-03-31T15:42:54;3.88;;;1.20;;
20855;SDS011;63058;49.424;8.420;2023-03-31T15:48:18;9.98;;;1.63;;
20855;SDS011;63058;49.424;8.420;2023-03-31T15:50:57;6.00;;;0.95;;
20855;SDS011;63058;49.424;8.420;2023-03-31T15:53:28;3.83;;;1.13;;
20855;SDS011;63058;49.424;8.420;2023-03-31T15:59:01;3.40;;;1.00;;
20855;SDS011;63058;49.424;8.420;2023-03-31T16:01:43;4.97;;;0.77;;
20855;SDS011;63058;49.424;8.420;2023-03-31T16:04:11;5.75;;;1.38;;
20855;SDS011;63058;49.424;8.420;2023-03-31T16:09:22;5.30;;;1.25;;
20855;SDS011;63058;49.424;8.420;2023-03-31T16:11:52;5.55;;;1.60;;
20855;SDS011;63058;49.424;8.420;2023-03-31T16:16:56;2.80;;;1.15;;
20855;SDS011;63058;49.424;8.420;2023-03-31T16:19:30;3.40;;;1.20;;
20855;SDS011;63058;49.424;8.420;2023-03-31T16:22:05;6.13;;;1.15;;
20855;SDS011;63058;49.424;8.420;2023-03-31T16:24:32;4.50;;;1.00;;
20855;SDS011;63058;49.424;8.420;2023-03-31T16:27:00;3.15;;;0.63;;
20855;SDS011;63058;49.424;8.420;2023-03-31T16:29:30;3.85;;;1.00;;
20855;SDS011;63058;49.424;8.420;2023-03-31T16:34:52;4.15;;;1.08;;
20855;SDS011;63058;49.424;8.420;2023-03-31T16:37:23;3.80;;;0.93;;
20855;SDS011;63058;49.424;8.420;2023-03-31T16:39:50;5.25;;;1.05;;
20855;SDS011;63058;49.424;8.420;2023-03-31T16:42:16;6.07;;;0.95;;
20855;SDS011;63058;49.424;8.420;2023-03-31T16:44:43;3.20;;;0.90;;
20855;SDS011;63058;49.424;8.420;2023-03-31T16:47:10;2.70;;;0.88;;
20855;SDS011;63058;49.424;8.420;2023-03-31T16:49:36;2.50;;;1.00;;
20855;SDS011;63058;49.424;8.420;2023-03-31T16:52:02;3.20;;;0.80;;
20855;SDS011;63058;49.424;8.420;2023-03-31T16:54:29;4.75;;;1.00;;
20855;SDS011;63058;49.424;8.420;2023-03-31T16:56:55;2.45;;;0.90;;
20855;SDS011;63058;49.424;8.420;2023-03-31T16:59:21;4.85;;;0.75;;
20855;SDS011;63058;49.424;8.420;2023-03-31T17:01:47;5.82;;;1.05;;
20855;SDS011;63058;49.424;8.420;2023-03-31T17:04:13;2.97;;;0.70;;
20855;SDS011;63058;49.424;8.420;2023-03-31T17:06:38;1.92;;;0.70;;
20855;SDS011;63058;49.424;8.420;2023-03-31T17:09:04;2.85;;;0.85;;
20855;SDS011;63058;49.424;8.420;2023-03-31T17:11:30;2.47;;;0.85;;
20855;SDS011;63058;49.424;8.420;2023-03-31T17:13:56;2.17;;;0.70;;
20855;SDS011;63058;49.424;8.420;2023-03-31T17:16:24;2.55;;;0.60;;
20855;SDS011;63058;49.424;8.420;2023-03-31T17:18:50;1.90;;;0.55;;
20855;SDS011;63058;49.424;8.420;2023-03-31T17:21:17;1.45;;;0.60;;
20855;SDS011;63058;49.424;8.420;2023-03-31T17:23:43;2.90;;;0.70;;
20855;SDS011;63058;49.424;8.420;2023-03-31T17:26:10;3.10;;;0.60;;
20855;SDS011;63058;49.424;8.420;2023-03-31T17:28:36;3.15;;;1.00;;
20855;SDS011;63058;49.424;8.420;2023-03-31T17:31:12;2.03;;;0.68;;
20855;SDS011;63058;49.424;8.420;2023-03-31T17:33:39;2.10;;;0.90;;
20855;SDS011;63058;49.424;8.420;2023-03-31T17:36:05;3.88;;;0.60;;
20855;SDS011;63058;49.424;8.420;2023-03-31T17:38:32;2.33;;;0.73;;
20855;SDS011;63058;49.424;8.420;2023-03-31T17:41:02;1.13;;;0.50;;
20855;SDS011;63058;49.424;8.420;2023-03-31T17:43:31;3.63;;;0.60;;
20855;SDS011;63058;49.424;8.420;2023-03-31T17:46:04;0.93;;;0.52;;
20855;SDS011;63058;49.424;8.420;2023-03-31T17:48:31;1.92;;;0.70;;
20855;SDS011;63058;49.424;8.420;2023-03-31T17:51:05;1.27;;;0.60;;
20855;SDS011;63058;49.424;8.420;2023-03-31T17:53:39;4.30;;;1.13;;
20855;SDS011;63058;49.424;8.420;2023-03-31T17:56:09;3.53;;;0.80;;
20855;SDS011;63058;49.424;8.420;2023-03-31T17:58:35;3.60;;;0.90;;
20855;SDS011;63058;49.424;8.420;2023-03-31T18:01:05;2.42;;;0.70;;
20855;SDS011;63058;49.424;8.420;2023-03-31T18:03:31;2.28;;;0.70;;